createdAt,value
2022-10-04T00:00:00.504Z,18.46
2022-10-04T00:02:34.223Z,18.49
2022-10-04T00:05:08.266Z,18.52
2022-10-04T00:07:44.179Z,18.52
2022-10-04T00:10:21.154Z,18.41
2022-10-04T00:12:56.981Z,18.28
2022-10-04T00:15:28.461Z,18.17
2022-10-04T00:18:20.865Z,18.06
2022-10-04T00:21:02.348Z,17.98
2022-10-04T00:23:47.313Z,17.91
2022-10-04T00:27:05.273Z,17.89
2022-10-04T00:29:37.436Z,17.87
2022-10-04T00:32:29.406Z,17.79
2022-10-04T00:34:57.990Z,17.79
2022-10-04T00:37:27.385Z,17.83
2022-10-04T00:40:12.597Z,17.82
2022-10-04T00:42:57.917Z,17.80
2022-10-04T00:45:37.028Z,17.76
2022-10-04T00:48:35.898Z,17.66
2022-10-04T00:51:14.655Z,17.61
2022-10-04T00:53:54.510Z,17.58
2022-10-04T00:56:34.002Z,17.61
2022-10-04T00:59:35.657Z,17.57
2022-10-04T01:02:14.328Z,17.62
2022-10-04T01:04:48.727Z,17.59
2022-10-04T01:07:26.107Z,17.58
2022-10-04T01:10:00.161Z,17.65
2022-10-04T01:12:43.920Z,17.68
2022-10-04T01:15:23.413Z,17.67
2022-10-04T01:18:33.282Z,17.65
2022-10-04T01:21:07.208Z,17.72
2022-10-04T01:23:43.234Z,17.70
2022-10-04T01:26:44.564Z,17.62
2022-10-04T01:29:16.646Z,17.64
2022-10-04T01:31:48.150Z,17.61
2022-10-04T01:34:18.312Z,17.52
2022-10-04T01:36:47.324Z,17.45
2022-10-04T01:39:19.514Z,17.35
2022-10-04T01:41:54.360Z,17.28
2022-10-04T01:44:30.126Z,17.17
2022-10-04T01:47:04.029Z,17.14
2022-10-04T01:49:36.624Z,17.13
2022-10-04T01:52:14.961Z,17.13
2022-10-04T01:54:48.866Z,17.10
2022-10-04T01:57:21.207Z,17.07
2022-10-04T01:59:57.578Z,17.02
2022-10-04T02:02:36.180Z,17.00
2022-10-04T02:05:10.617Z,17.00
2022-10-04T02:07:41.626Z,17.01
2022-10-04T02:10:18.602Z,16.99
2022-10-04T02:12:50.189Z,17.01
2022-10-04T02:15:22.306Z,16.99
2022-10-04T02:17:50.513Z,17.02
2022-10-04T02:20:22.158Z,17.03
2022-10-04T02:22:59.203Z,17.03
2022-10-04T02:25:28.040Z,17.02
2022-10-04T02:27:56.765Z,17.00
2022-10-04T02:30:25.079Z,16.96
2022-10-04T02:33:00.506Z,16.95
2022-10-04T02:35:35.868Z,16.93
2022-10-04T02:38:17.248Z,16.91
2022-10-04T02:40:58.132Z,16.91
2022-10-04T02:43:34.647Z,16.92
2022-10-04T02:46:12.042Z,16.88
2022-10-04T02:48:47.234Z,16.83
2022-10-04T02:51:26.507Z,16.83
2022-10-04T02:54:05.028Z,16.84
2022-10-04T02:56:36.366Z,16.89
2022-10-04T02:59:05.778Z,16.89
2022-10-04T03:01:52.773Z,16.83
2022-10-04T03:04:25.460Z,16.84
2022-10-04T03:06:55.177Z,16.84
2022-10-04T03:09:29.521Z,16.83
2022-10-04T03:12:00.086Z,16.83
2022-10-04T03:14:29.378Z,16.84
2022-10-04T03:17:01.027Z,16.82
2022-10-04T03:19:32.339Z,16.79
2022-10-04T03:22:04.801Z,16.76
2022-10-04T03:24:37.696Z,16.75
2022-10-04T03:27:14.310Z,16.73
2022-10-04T03:29:43.267Z,16.72
2022-10-04T03:32:15.389Z,16.71
2022-10-04T03:34:53.473Z,16.70
2022-10-04T03:37:21.547Z,16.68
2022-10-04T03:39:52.999Z,16.69
2022-10-04T03:42:25.693Z,16.75
2022-10-04T03:45:00.086Z,16.78
2022-10-04T03:47:32.681Z,16.80
2022-10-04T03:50:13.077Z,16.79
2022-10-04T03:52:48.431Z,16.76
2022-10-04T03:55:19.854Z,16.69
2022-10-04T03:57:48.721Z,16.67
2022-10-04T04:00:18.669Z,16.64
2022-10-04T04:02:52.290Z,16.64
2022-10-04T04:05:25.851Z,16.63
2022-10-04T04:08:06.882Z,16.61
2022-10-04T04:10:39.212Z,16.60
2022-10-04T04:13:24.086Z,16.61
2022-10-04T04:15:53.781Z,16.67
2022-10-04T04:18:24.551Z,16.72
2022-10-04T04:20:59.333Z,16.75
2022-10-04T04:23:32.901Z,16.76
2022-10-04T04:26:16.794Z,16.74
2022-10-04T04:28:50.968Z,16.76
2022-10-04T04:31:24.150Z,16.78
2022-10-04T04:34:00.292Z,16.77
2022-10-04T04:36:30.156Z,16.78
2022-10-04T04:39:27.661Z,16.75
2022-10-04T04:41:55.295Z,16.75
2022-10-04T04:44:24.818Z,16.75
2022-10-04T04:46:53.647Z,16.74
2022-10-04T04:49:21.307Z,16.75
2022-10-04T04:51:52.422Z,16.75
2022-10-04T04:54:24.018Z,16.75
2022-10-04T04:56:54.896Z,16.71
2022-10-04T04:59:27.642Z,16.64
2022-10-04T05:01:54.955Z,16.61
2022-10-04T05:04:23.949Z,16.59
2022-10-04T05:07:03.740Z,16.55
2022-10-04T05:09:34.283Z,16.57
2022-10-04T05:12:15.518Z,16.56
2022-10-04T05:14:52.101Z,16.53
2022-10-04T05:17:24.380Z,16.55
2022-10-04T05:19:56.072Z,16.53
2022-10-04T05:22:26.986Z,16.51
2022-10-04T05:25:00.015Z,16.48
2022-10-04T05:27:35.637Z,16.43
2022-10-04T05:30:13.741Z,16.38
2022-10-04T05:32:57.970Z,16.33
2022-10-04T05:35:28.458Z,16.34
2022-10-04T05:38:06.060Z,16.32
2022-10-04T05:40:46.634Z,16.32
2022-10-04T05:43:35.474Z,16.29
2022-10-04T05:46:25.567Z,16.27
2022-10-04T05:48:56.990Z,16.32
2022-10-04T05:51:28.198Z,16.34
2022-10-04T05:54:11.546Z,16.36
2022-10-04T05:57:22.144Z,16.30
2022-10-04T06:00:11.125Z,16.36
2022-10-04T06:03:31.631Z,16.33
2022-10-04T06:06:11.916Z,16.35
2022-10-04T06:08:55.744Z,16.33
2022-10-04T06:11:41.073Z,16.33
2022-10-04T06:14:48.322Z,16.31
2022-10-04T06:17:53.053Z,16.27
2022-10-04T06:21:10.018Z,16.27
2022-10-04T06:23:48.963Z,16.33
2022-10-04T06:26:25.001Z,16.33
2022-10-04T06:29:00.363Z,16.35
2022-10-04T06:32:14.933Z,16.30
2022-10-04T06:35:35.053Z,16.31
2022-10-04T06:39:04.409Z,16.28
2022-10-04T06:42:11.856Z,16.27
2022-10-04T06:45:28.067Z,16.23
2022-10-04T06:48:22.200Z,16.26
2022-10-04T06:50:56.031Z,16.32
2022-10-04T06:53:40.274Z,16.33
2022-10-04T06:56:45.087Z,16.27
2022-10-04T06:59:40.268Z,16.31
2022-10-04T07:02:18.019Z,16.32
2022-10-04T07:05:08.239Z,16.36
2022-10-04T07:07:40.428Z,16.46
2022-10-04T07:10:32.685Z,16.53
2022-10-04T07:13:34.613Z,16.65
2022-10-04T07:16:33.005Z,16.77
2022-10-04T07:19:26.678Z,16.89
2022-10-04T07:22:17.942Z,16.95
2022-10-04T07:25:04.230Z,17.07
2022-10-04T07:28:17.854Z,17.23
2022-10-04T07:30:56.037Z,17.35
2022-10-04T07:33:38.568Z,17.43
2022-10-04T07:36:12.136Z,17.47
2022-10-04T07:38:50.550Z,17.55
2022-10-04T07:41:28.663Z,17.57
2022-10-04T07:44:06.523Z,17.61
2022-10-04T07:47:00.699Z,17.59
2022-10-04T07:49:31.456Z,17.63
2022-10-04T07:52:26.177Z,17.64
2022-10-04T07:55:07.917Z,17.71
2022-10-04T07:57:50.531Z,17.81
2022-10-04T08:00:45.960Z,17.98
2022-10-04T08:03:52.994Z,18.19
2022-10-04T08:06:52.597Z,18.37
2022-10-04T08:10:27.178Z,18.51
2022-10-04T08:13:23.940Z,18.69
2022-10-04T08:16:30.088Z,18.84
2022-10-04T08:19:29.678Z,19.03
2022-10-04T08:22:30.034Z,19.20
2022-10-04T08:25:16.738Z,19.33
2022-10-04T08:28:18.220Z,19.54
2022-10-04T08:31:09.320Z,19.89
2022-10-04T08:34:47.618Z,20.61
2022-10-04T08:37:53.992Z,20.92
2022-10-04T08:41:27.802Z,20.92
2022-10-04T08:44:47.287Z,20.90
2022-10-04T08:48:38.798Z,20.85
2022-10-04T08:51:58.489Z,20.91
2022-10-04T08:55:35.201Z,21.02
2022-10-04T08:58:41.275Z,21.50
2022-10-04T09:01:56.948Z,22.29
2022-10-04T09:05:09.049Z,23.30
2022-10-04T09:08:28.501Z,24.68
2022-10-04T09:11:23.136Z,25.34
2022-10-04T09:14:23.509Z,25.51
2022-10-04T09:17:18.574Z,25.89
2022-10-04T09:20:26.320Z,26.86
2022-10-04T09:23:06.485Z,27.60
2022-10-04T09:25:56.437Z,28.46
2022-10-04T09:29:11.423Z,29.38
2022-10-04T09:32:41.689Z,30.07
2022-10-04T09:35:39.611Z,30.83
2022-10-04T09:38:44.566Z,31.58
2022-10-04T09:41:58.449Z,31.56
2022-10-04T09:45:07.547Z,31.51
2022-10-04T09:47:45.788Z,31.59
2022-10-04T09:51:36.359Z,31.90
2022-10-04T09:54:51.619Z,32.43
2022-10-04T09:57:34.352Z,33.29
2022-10-04T10:00:25.292Z,33.75
2022-10-04T10:04:05.028Z,33.61
2022-10-04T10:07:23.767Z,33.11
2022-10-04T10:10:33.802Z,32.91
2022-10-04T10:13:43.371Z,32.66
2022-10-04T10:16:33.859Z,33.02
2022-10-04T10:19:30.446Z,33.32
2022-10-04T10:22:26.845Z,33.43
2022-10-04T10:25:31.381Z,32.79
2022-10-04T10:28:29.429Z,31.38
2022-10-04T10:31:28.203Z,29.92
2022-10-04T10:34:53.789Z,28.39
2022-10-04T10:37:43.908Z,27.52
2022-10-04T10:40:44.257Z,26.65
2022-10-04T10:43:39.270Z,26.33
2022-10-04T10:46:44.009Z,26.01
2022-10-04T10:49:49.119Z,25.73
2022-10-04T10:53:31.394Z,25.21
2022-10-04T10:56:57.690Z,25.14
2022-10-04T11:00:08.052Z,25.55
2022-10-04T11:03:25.483Z,25.83
2022-10-04T11:06:35.714Z,25.98
2022-10-04T11:09:43.542Z,26.09
2022-10-04T11:12:55.002Z,26.31
2022-10-04T11:16:04.076Z,26.24
2022-10-04T11:19:36.137Z,25.62
2022-10-04T11:23:02.019Z,25.26
2022-10-04T11:26:09.574Z,25.14
2022-10-04T11:29:00.818Z,25.09
2022-10-04T11:32:25.987Z,24.94
2022-10-04T11:35:51.341Z,24.83
2022-10-04T11:38:48.834Z,24.84
2022-10-04T11:41:34.525Z,24.92
2022-10-04T11:45:00.438Z,25.19
2022-10-04T11:47:41.564Z,26.14
2022-10-04T11:50:40.993Z,27.27
2022-10-04T11:54:08.992Z,28.27
2022-10-04T11:57:15.437Z,28.72
2022-10-04T12:00:00.190Z,28.43
2022-10-04T12:03:28.309Z,27.79
2022-10-04T12:06:35.061Z,27.37
2022-10-04T12:09:19.881Z,27.66
2022-10-04T12:12:37.049Z,28.04
2022-10-04T12:15:41.919Z,27.63
2022-10-04T12:18:33.047Z,26.86
2022-10-04T12:21:50.495Z,26.33
2022-10-04T12:25:01.854Z,26.24
2022-10-04T12:28:19.966Z,26.84
2022-10-04T12:31:12.029Z,27.66
2022-10-04T12:33:54.116Z,27.61
2022-10-04T12:36:49.850Z,27.25
2022-10-04T12:39:38.778Z,26.98
2022-10-04T12:42:32.417Z,26.77
2022-10-04T12:45:42.007Z,26.70
2022-10-04T12:48:27.667Z,26.88
2022-10-04T12:51:10.258Z,26.95
2022-10-04T12:53:54.534Z,26.73
2022-10-04T12:56:46.096Z,26.33
2022-10-04T12:59:36.157Z,25.90
2022-10-04T13:02:24.845Z,25.53
2022-10-04T13:05:02.607Z,25.42
2022-10-04T13:08:06.740Z,25.05
2022-10-04T13:10:55.415Z,24.78
2022-10-04T13:13:55.170Z,24.59
2022-10-04T13:19:50.439Z,24.51
2022-10-04T13:22:56.528Z,24.45
2022-10-04T13:26:03.984Z,24.57
2022-10-04T13:28:43.654Z,25.05
2022-10-04T13:31:24.542Z,25.50
2022-10-04T13:34:08.105Z,25.57
2022-10-04T13:37:00.654Z,25.45
2022-10-04T13:39:57.977Z,25.34
2022-10-04T13:43:05.082Z,25.13
2022-10-04T13:45:53.276Z,25.13
2022-10-04T13:48:34.639Z,25.59
2022-10-04T13:52:16.973Z,25.99
2022-10-04T13:55:23.941Z,26.01
2022-10-04T13:57:59.435Z,25.97
2022-10-04T14:00:57.109Z,25.87
2022-10-04T14:03:50.172Z,25.77
2022-10-04T14:07:34.558Z,25.47
2022-10-04T14:10:34.563Z,25.17
2022-10-04T14:13:47.362Z,25.14
2022-10-04T14:17:07.294Z,25.17
2022-10-04T14:20:30.282Z,25.13
2022-10-04T14:23:48.344Z,24.96
2022-10-04T14:27:16.560Z,24.82
2022-10-04T14:30:08.067Z,24.71
2022-10-04T14:33:35.252Z,24.29
2022-10-04T14:36:40.962Z,23.99
2022-10-04T14:39:53.560Z,23.86
2022-10-04T14:43:15.285Z,23.91
2022-10-04T14:46:07.068Z,23.97
2022-10-04T14:49:08.043Z,23.96
2022-10-04T14:51:55.189Z,23.99
2022-10-04T14:54:42.216Z,23.96
2022-10-04T14:57:20.138Z,23.97
2022-10-04T15:00:11.483Z,23.98
2022-10-04T15:03:16.120Z,23.97
2022-10-04T15:06:19.806Z,23.83
2022-10-04T15:09:13.920Z,23.80
2022-10-04T15:15:24.567Z,23.74
2022-10-04T15:18:04.131Z,23.71
2022-10-04T15:20:47.408Z,23.67
2022-10-04T15:23:29.469Z,23.57
2022-10-04T15:26:05.131Z,23.43
2022-10-04T15:28:53.591Z,23.38
2022-10-04T15:31:33.806Z,23.37
2022-10-04T15:34:22.494Z,23.36
2022-10-04T15:37:09.854Z,23.27
2022-10-04T15:40:03.874Z,23.17
2022-10-04T15:42:35.980Z,23.18
2022-10-04T15:45:48.451Z,23.05
2022-10-04T15:49:12.432Z,23.02
2022-10-04T15:52:06.394Z,23.01
2022-10-04T15:55:22.251Z,22.95
2022-10-04T15:58:50.610Z,22.85
2022-10-04T16:01:41.249Z,22.85
2022-10-04T16:04:57.610Z,22.73
2022-10-04T16:08:05.285Z,22.68
2022-10-04T16:11:06.535Z,22.63
2022-10-04T16:13:58.621Z,22.55
2022-10-04T16:17:06.904Z,22.51
2022-10-04T16:20:24.049Z,22.46
2022-10-04T16:23:28.132Z,22.45
2022-10-04T16:25:57.722Z,22.47
2022-10-04T16:29:11.724Z,22.35
2022-10-04T16:31:52.660Z,22.35
2022-10-04T16:34:57.497Z,22.26
2022-10-04T16:37:42.002Z,22.21
2022-10-04T16:40:41.255Z,22.18
2022-10-04T16:43:25.314Z,22.16
2022-10-04T16:46:17.037Z,22.13
2022-10-04T16:48:56.152Z,22.13
2022-10-04T16:52:19.221Z,21.97
2022-10-04T16:55:25.881Z,21.93
2022-10-04T16:58:42.045Z,21.88
2022-10-04T17:02:12.827Z,21.80
2022-10-04T17:05:22.768Z,21.75
2022-10-04T17:08:45.975Z,21.68
2022-10-04T17:11:35.800Z,21.67
2022-10-04T17:14:37.747Z,21.63
2022-10-04T17:17:21.634Z,21.64
2022-10-04T17:19:54.499Z,21.64
2022-10-04T17:22:40.015Z,21.61
2022-10-04T17:25:31.147Z,21.57
2022-10-04T17:28:20.191Z,21.52
2022-10-04T17:30:57.427Z,21.50
2022-10-04T17:33:43.505Z,21.43
2022-10-04T17:36:36.261Z,21.38
2022-10-04T17:39:22.160Z,21.35
2022-10-04T17:42:12.080Z,21.29
2022-10-04T17:45:08.024Z,21.21
2022-10-04T17:48:00.485Z,21.22
2022-10-04T17:50:56.172Z,21.18
2022-10-04T17:53:49.200Z,21.14
2022-10-04T17:56:33.579Z,21.07
2022-10-04T17:59:12.446Z,21.07
2022-10-04T18:01:46.419Z,21.06
2022-10-04T18:04:23.563Z,21.02
2022-10-04T18:06:58.659Z,20.96
2022-10-04T18:09:35.711Z,20.92
2022-10-04T18:12:12.612Z,20.85
2022-10-04T18:14:58.175Z,20.79
2022-10-04T18:17:35.915Z,20.74
2022-10-04T18:20:27.980Z,20.66
2022-10-04T18:23:16.642Z,20.59
2022-10-04T18:25:45.795Z,20.59
2022-10-04T18:28:21.731Z,20.53
2022-10-04T18:30:59.149Z,20.49
2022-10-04T18:33:49.914Z,20.39
2022-10-04T18:36:19.681Z,20.39
2022-10-04T18:39:03.643Z,20.32
2022-10-04T18:41:50.163Z,20.29
2022-10-04T18:44:21.577Z,20.24
2022-10-04T18:46:55.877Z,20.22
2022-10-04T18:49:29.398Z,20.18
2022-10-04T18:57:01.491Z,19.94
2022-10-04T19:00:19.971Z,19.94
2022-10-04T19:03:00.733Z,19.99
2022-10-04T19:05:40.376Z,20.00
2022-10-04T19:08:22.694Z,19.95
2022-10-04T19:10:58.092Z,19.98
2022-10-04T19:13:39.834Z,19.98
2022-10-04T19:16:32.676Z,19.89
2022-10-04T19:19:27.208Z,19.81
2022-10-04T19:22:03.653Z,19.80
2022-10-04T19:25:15.319Z,19.70
2022-10-04T19:27:49.326Z,19.67
2022-10-04T19:30:21.595Z,19.67
2022-10-04T19:33:06.886Z,19.62
2022-10-04T19:36:09.992Z,19.54
2022-10-04T19:38:57.578Z,19.50
2022-10-04T19:41:51.449Z,19.47
2022-10-04T19:44:52.169Z,19.44
2022-10-04T19:47:38.862Z,19.44
2022-10-04T19:50:21.151Z,19.38
2022-10-04T19:52:53.663Z,19.36
2022-10-04T19:55:42.117Z,19.31
2022-10-04T19:58:30.608Z,19.23
2022-10-04T20:00:58.430Z,19.23
2022-10-04T20:03:25.986Z,19.19
2022-10-04T20:05:55.093Z,19.22
2022-10-04T20:08:52.643Z,19.18
2022-10-04T20:11:26.226Z,19.24
2022-10-04T20:14:54.933Z,19.17
2022-10-04T20:17:33.641Z,19.18
2022-10-04T20:20:01.811Z,19.20
2022-10-04T20:22:45.854Z,19.20
2022-10-04T20:25:52.137Z,19.14
2022-10-04T20:28:41.771Z,19.09
2022-10-04T20:31:12.139Z,19.12
2022-10-04T20:33:48.301Z,19.11
2022-10-04T20:36:51.818Z,19.06
2022-10-04T20:40:01.219Z,19.05
2022-10-04T20:42:33.445Z,19.12
2022-10-04T20:45:24.618Z,19.12
2022-10-04T20:47:54.888Z,19.14
2022-10-04T20:50:35.143Z,19.12
2022-10-04T20:53:15.061Z,19.15
2022-10-04T20:55:44.258Z,19.17
2022-10-04T20:58:35.920Z,19.10
2022-10-04T21:01:37.870Z,19.16
2022-10-04T21:04:15.304Z,19.13
2022-10-04T21:06:52.499Z,19.13
2022-10-04T21:09:24.022Z,19.14
2022-10-04T21:11:53.655Z,19.12
2022-10-04T21:14:24.347Z,19.10
2022-10-04T21:16:57.561Z,19.13
2022-10-04T21:19:52.691Z,19.09
2022-10-04T21:22:35.089Z,19.11
2022-10-04T21:25:25.845Z,19.09
2022-10-04T21:27:53.201Z,19.07
2022-10-04T21:30:20.598Z,19.07
2022-10-04T21:32:49.385Z,19.07
2022-10-04T21:35:16.696Z,19.06
2022-10-04T21:37:44.050Z,19.08
2022-10-04T21:40:13.707Z,19.07
2022-10-04T21:42:40.946Z,19.06
2022-10-04T21:45:09.201Z,19.07
2022-10-04T21:47:37.203Z,19.07
2022-10-04T21:50:06.860Z,19.09
2022-10-04T21:52:34.136Z,19.10
2022-10-04T21:55:01.414Z,19.09
2022-10-04T21:57:33.223Z,19.12
2022-10-04T22:00:02.856Z,19.12
2022-10-04T22:02:30.232Z,19.09
2022-10-04T22:04:57.522Z,19.10
2022-10-04T22:07:26.199Z,19.11
2022-10-04T22:09:53.468Z,19.13
2022-10-04T22:12:20.696Z,19.14
2022-10-04T22:14:48.056Z,19.12
2022-10-04T22:17:15.298Z,19.10
2022-10-04T22:19:42.580Z,19.11
2022-10-04T22:22:15.086Z,19.11
2022-10-04T22:24:44.121Z,19.13
2022-10-04T22:27:15.193Z,19.12
2022-10-04T22:29:42.615Z,19.11
2022-10-04T22:32:17.721Z,19.07
2022-10-04T22:34:45.170Z,19.04
2022-10-04T22:37:12.958Z,19.00
2022-10-04T22:39:40.368Z,18.96
2022-10-04T22:42:14.622Z,18.91
2022-10-04T22:44:42.207Z,18.91
2022-10-04T22:47:13.812Z,18.89
2022-10-04T22:49:44.266Z,18.85
2022-10-04T22:52:17.426Z,18.81
2022-10-04T22:54:47.129Z,18.80
2022-10-04T22:57:17.725Z,18.73
2022-10-04T22:59:48.840Z,18.71
2022-10-04T23:02:19.918Z,18.64
2022-10-04T23:04:53.767Z,18.63
2022-10-04T23:07:22.047Z,18.61
2022-10-04T23:09:49.993Z,18.62
2022-10-04T23:12:18.651Z,18.64
2022-10-04T23:14:45.957Z,18.63
2022-10-04T23:17:23.348Z,18.62
2022-10-04T23:19:53.072Z,18.62
2022-10-04T23:22:27.643Z,18.59
2022-10-04T23:24:55.900Z,18.56
2022-10-04T23:27:24.790Z,18.54
2022-10-04T23:30:00.825Z,18.52
2022-10-04T23:32:28.372Z,18.48
2022-10-04T23:34:57.071Z,18.46
2022-10-04T23:37:30.559Z,18.42
2022-10-04T23:39:58.216Z,18.42
2022-10-04T23:42:32.145Z,18.39
2022-10-04T23:45:02.026Z,18.37
2022-10-04T23:47:35.917Z,18.38
2022-10-04T23:50:19.636Z,18.38
2022-10-04T23:52:47.174Z,18.41
2022-10-04T23:55:19.266Z,18.40
2022-10-04T23:57:48.313Z,18.39
